Time,TemperatureF,DewpointF,PressureIn,WindDirection,WindDirectionDegrees,WindSpeedMPH,WindSpeedGustMPH,Humidity,HourlyPrecipIn,Conditions,Clouds,dailyrainin,SoftwareType,DateUTC
2013-03-08 00:04:00,50.5,50.0,29.32,East,86,3.1,3.1,98,0.00,,-RA,0.00,VWS V14.01,2013-03-08 00:04:00,
2013-03-08 00:09:00,50.5,50.0,29.32,North,353,0.0,0.0,98,0.00,,-RA,0.00,VWS V14.01,2013-03-08 00:09:00,
2013-03-08 00:14:00,50.5,50.0,29.32,North,353,0.0,3.6,98,0.00,,-RA,0.00,VWS V14.01,2013-03-08 00:14:00,
2013-03-08 00:19:00,50.5,50.0,29.32,East,81,0.0,0.0,98,0.00,,-RA,0.00,VWS V14.01,2013-03-08 00:19:00,
2013-03-08 00:24:00,50.5,50.0,29.32,ENE,69,3.6,4.0,98,0.00,,-RA,0.00,VWS V14.01,2013-03-08 00:24:00,
2013-03-08 00:29:00,50.5,50.0,29.32,North,353,4.0,4.0,98,0.00,,-RA,0.00,VWS V14.01,2013-03-08 00:29:00,
2013-03-08 00:34:00,50.5,50.0,29.32,ENE,76,4.0,4.5,98,0.00,,-RA,0.00,VWS V14.01,2013-03-08 00:34:00,
2013-03-08 00:39:00,50.5,50.0,29.32,East,82,3.1,3.6,98,0.00,,-RA,0.00,VWS V14.01,2013-03-08 00:39:00,
2013-03-08 00:44:00,50.5,50.0,29.29,North,353,4.5,4.5,98,0.00,,-RA,0.00,VWS V14.01,2013-03-08 00:44:00,
2013-03-08 00:50:00,50.5,50.0,29.29,East,89,3.1,4.0,98,0.00,,-RA,0.00,VWS V14.01,2013-03-08 00:50:00,
2013-03-08 00:55:00,50.5,50.0,29.29,North,353,3.1,4.0,98,0.00,,-RA,0.00,VWS V14.01,2013-03-08 00:55:00,
2013-03-08 01:00:00,50.5,50.0,29.32,ESE,103,2.2,4.0,98,0.00,,-RA,0.00,VWS V14.01,2013-03-08 01:00:00,
2013-03-08 01:05:00,50.5,50.0,29.32,East,92,3.1,4.0,98,0.00,,,0.00,VWS V14.01,2013-03-08 01:05:00,
2013-03-08 01:10:00,50.5,50.0,29.32,ESE,113,3.1,3.6,98,0.00,,,0.00,VWS V14.01,2013-03-08 01:10:00,
2013-03-08 01:15:00,50.5,50.0,29.32,East,88,3.1,3.6,98,0.00,,,0.00,VWS V14.01,2013-03-08 01:15:00,
2013-03-08 01:20:00,50.5,50.0,29.32,ENE,77,4.9,4.9,98,0.00,,,0.00,VWS V14.01,2013-03-08 01:20:00,
2013-03-08 01:25:00,50.5,50.0,29.32,North,353,2.2,2.7,98,0.00,,,0.00,VWS V14.01,2013-03-08 01:25:00,
2013-03-08 01:30:00,50.5,50.0,29.32,East,98,2.2,2.7,98,0.00,,,0.00,VWS V14.01,2013-03-08 01:30:00,
2013-03-08 01:35:00,50.5,50.0,29.32,East,85,0.0,0.0,98,0.00,,,0.00,VWS V14.01,2013-03-08 01:35:00,
2013-03-08 01:40:00,50.5,50.0,29.32,North,353,0.0,0.0,98,0.00,,,0.00,VWS V14.01,2013-03-08 01:40:00,
2013-03-08 01:46:00,50.5,50.0,29.32,East,84,0.0,0.0,98,0.00,,,0.00,VWS V14.01,2013-03-08 01:46:00,
2013-03-08 01:51:00,50.5,50.0,29.32,East,93,0.0,0.0,98,0.00,,,0.00,VWS V14.01,2013-03-08 01:51:00,
2013-03-08 01:56:00,50.5,50.0,29.32,North,353,0.0,0.0,98,0.00,,,0.00,VWS V14.01,2013-03-08 01:56:00,
2013-03-08 02:01:00,50.5,50.0,29.32,East,100,0.0,0.0,98,0.00,,,0.00,VWS V14.01,2013-03-08 02:01:00,
2013-03-08 02:06:00,50.5,50.0,29.32,North,353,2.7,2.7,98,0.00,,,0.00,VWS V14.01,2013-03-08 02:06:00,
2013-03-08 02:11:00,50.5,50.0,29.32,North,353,4.0,4.0,98,0.00,,,0.00,VWS V14.01,2013-03-08 02:11:00,
2013-03-08 02:16:00,50.5,50.0,29.32,North,353,0.0,3.1,98,0.00,,,0.00,VWS V14.01,2013-03-08 02:16:00,
2013-03-08 02:21:00,50.5,50.0,29.32,East,87,3.1,4.0,98,0.00,,,0.00,VWS V14.01,2013-03-08 02:21:00,
2013-03-08 02:27:00,50.5,50.0,29.32,ENE,71,2.7,4.9,98,0.00,,,0.00,VWS V14.01,2013-03-08 02:27:00,
2013-03-08 02:32:00,50.5,50.0,29.32,North,353,2.7,3.1,98,0.00,,,0.00,VWS V14.01,2013-03-08 02:32:00,
2013-03-08 02:37:00,50.5,50.0,29.32,North,353,2.2,2.7,98,0.00,,,0.00,VWS V14.01,2013-03-08 02:37:00,
2013-03-08 02:42:00,50.5,50.0,29.32,North,353,3.1,3.1,98,0.00,,,0.00,VWS V14.01,2013-03-08 02:42:00,
2013-03-08 02:47:00,50.5,50.0,29.32,North,353,2.7,3.1,98,0.00,,,0.00,VWS V14.01,2013-03-08 02:47:00,
2013-03-08 02:52:00,50.5,50.0,29.32,North,353,4.0,4.0,98,0.00,,,0.00,VWS V14.01,2013-03-08 02:52:00,
2013-03-08 02:57:00,50.5,50.0,29.32,North,353,0.0,0.0,98,0.00,,,0.00,VWS V14.01,2013-03-08 02:57:00,
2013-03-08 03:02:00,50.5,50.0,29.32,North,353,2.2,3.6,98,0.00,,,0.00,VWS V14.01,2013-03-08 03:02:00,
2013-03-08 03:07:00,50.5,50.0,29.32,ESE,119,3.1,3.1,98,0.00,,,0.00,VWS V14.01,2013-03-08 03:07:00,
2013-03-08 03:12:00,50.5,50.0,29.32,North,353,0.0,0.0,98,0.00,,,0.00,VWS V14.01,2013-03-08 03:12:00,
2013-03-08 03:17:00,50.5,50.0,29.32,North,353,0.0,0.0,98,0.00,,,0.00,VWS V14.01,2013-03-08 03:17:00,
2013-03-08 03:22:00,50.5,50.0,29.32,North,353,0.0,0.0,98,0.00,,,0.00,VWS V14.01,2013-03-08 03:22:00,
2013-03-08 03:27:00,50.5,50.0,29.32,North,353,0.0,0.0,98,0.00,,,0.00,VWS V14.01,2013-03-08 03:27:00,
2013-03-08 03:32:00,50.5,50.0,29.32,ENE,66,0.0,0.0,98,0.00,,,0.00,VWS V14.01,2013-03-08 03:32:00,
2013-03-08 03:37:00,50.5,50.0,29.32,East,79,0.0,0.0,98,0.00,,,0.00,VWS V14.01,2013-03-08 03:37:00,
2013-03-08 03:42:00,50.5,50.0,29.32,ENE,73,0.0,2.2,98,0.00,,,0.00,VWS V14.01,2013-03-08 03:42:00,
2013-03-08 03:47:00,50.5,50.0,29.32,North,353,2.7,2.7,98,0.00,,,0.00,VWS V14.01,2013-03-08 03:47:00,
2013-03-08 03:52:00,50.5,50.0,29.32,North,353,0.0,0.0,98,0.00,,,0.00,VWS V14.01,2013-03-08 03:52:00,
2013-03-08 03:57:00,50.5,50.0,29.32,NE,35,0.0,0.0,98,0.00,,,0.00,VWS V14.01,2013-03-08 03:57:00,
2013-03-08 04:02:00,50.5,50.0,29.32,North,353,0.0,0.0,98,0.00,,,0.00,VWS V14.01,2013-03-08 04:02:00,
2013-03-08 04:08:00,50.5,50.0,29.32,ENE,66,0.0,0.0,98,0.00,,,0.00,VWS V14.01,2013-03-08 04:08:00,
2013-03-08 04:13:00,50.5,50.0,29.32,ENE,66,0.0,3.1,98,0.00,,,0.00,VWS V14.01,2013-03-08 04:13:00,
2013-03-08 04:18:00,50.5,50.0,29.32,ENE,75,2.7,3.1,98,0.00,,,0.00,VWS V14.01,2013-03-08 04:18:00,
2013-03-08 04:23:00,50.5,50.0,29.32,ENE,77,0.0,2.2,98,0.00,,,0.00,VWS V14.01,2013-03-08 04:23:00,
2013-03-08 04:28:00,50.5,50.0,29.32,East,87,2.2,2.2,98,0.00,,,0.00,VWS V14.01,2013-03-08 04:28:00,
2013-03-08 04:33:00,50.5,50.0,29.32,ENE,62,0.0,0.0,98,0.00,,,0.00,VWS V14.01,2013-03-08 04:33:00,
2013-03-08 04:38:00,50.5,50.0,29.32,East,86,3.1,3.1,98,0.00,,,0.00,VWS V14.01,2013-03-08 04:38:00,
2013-03-08 04:43:00,50.5,50.0,29.32,ENE,71,2.7,3.1,98,0.00,,,0.00,VWS V14.01,2013-03-08 04:43:00,
2013-03-08 04:49:00,50.5,50.0,29.32,NNE,20,3.6,4.0,98,0.00,,,0.00,VWS V14.01,2013-03-08 04:49:00,
2013-03-08 04:54:00,50.5,50.0,29.32,NE,44,2.7,4.0,98,0.00,,,0.00,VWS V14.01,2013-03-08 04:54:00,
2013-03-08 04:59:00,50.5,50.0,29.32,NE,48,0.0,3.6,98,0.00,,,0.00,VWS V14.01,2013-03-08 04:59:00,
2013-03-08 05:00:00,50.5,50.0,29.32,NE,48,0.0,0.0,98,0.00,,,0.00,VWS V14.01,2013-03-08 05:00:00,
2013-03-08 05:01:00,50.5,50.0,29.32,ENE,58,0.0,0.0,98,0.00,,,0.00,VWS V14.01,2013-03-08 05:01:00,
2013-03-08 05:06:00,50.5,50.0,29.32,ENE,74,3.6,3.6,98,0.00,,,0.00,VWS V14.01,2013-03-08 05:06:00,
2013-03-08 05:11:00,50.5,50.0,29.32,East,82,3.1,3.1,98,0.00,,,0.00,VWS V14.01,2013-03-08 05:11:00,
2013-03-08 05:16:00,50.5,50.0,29.32,NE,52,3.6,4.0,98,0.00,,,0.00,VWS V14.01,2013-03-08 05:16:00,
2013-03-08 05:21:00,50.5,50.0,29.32,East,82,4.0,4.0,98,0.00,,,0.00,VWS V14.01,2013-03-08 05:21:00,
2013-03-08 05:26:00,50.5,50.0,29.32,NE,48,4.0,4.0,98,0.00,,,0.00,VWS V14.01,2013-03-08 05:26:00,
2013-03-08 05:31:00,50.5,50.0,29.32,East,83,3.1,4.9,98,0.00,,,0.00,VWS V14.01,2013-03-08 05:31:00,
2013-03-08 05:37:00,50.5,50.0,29.32,NE,50,4.0,5.8,98,0.00,,,0.00,VWS V14.01,2013-03-08 05:37:00,
2013-03-08 05:42:00,50.5,50.0,29.32,East,90,4.0,4.0,98,0.00,,,0.00,VWS V14.01,2013-03-08 05:42:00,
2013-03-08 05:47:00,50.5,50.0,29.32,East,93,4.5,4.5,98,0.00,,,0.00,VWS V14.01,2013-03-08 05:47:00,
2013-03-08 05:52:00,50.5,50.0,29.32,ENE,70,4.0,4.0,98,0.00,,,0.00,VWS V14.01,2013-03-08 05:52:00,
2013-03-08 05:57:00,50.5,50.0,29.32,ENE,73,3.1,4.9,98,0.00,,,0.00,VWS V14.01,2013-03-08 05:57:00,
2013-03-08 06:02:00,50.5,50.0,29.32,East,93,4.0,4.9,98,0.00,,,0.00,VWS V14.01,2013-03-08 06:02:00,
2013-03-08 06:07:00,50.5,50.0,29.32,East,86,4.0,4.0,98,0.00,,,0.00,VWS V14.01,2013-03-08 06:07:00,
2013-03-08 06:12:00,50.5,50.0,29.32,East,84,3.1,4.0,98,0.00,,,0.00,VWS V14.01,2013-03-08 06:12:00,
2013-03-08 06:17:00,50.5,50.0,29.32,ENE,68,4.9,5.4,98,0.00,,,0.00,VWS V14.01,2013-03-08 06:17:00,
2013-03-08 06:22:00,50.5,50.0,29.32,ENE,60,3.1,3.6,98,0.00,,,0.00,VWS V14.01,2013-03-08 06:22:00,
2013-03-08 06:27:00,50.5,50.0,29.32,East,89,0.0,0.0,98,0.00,,,0.00,VWS V14.01,2013-03-08 06:27:00,
2013-03-08 06:32:00,50.5,50.0,29.32,ENE,68,2.7,3.6,98,0.00,,,0.00,VWS V14.01,2013-03-08 06:32:00,
2013-03-08 06:37:00,50.5,50.0,29.32,ESE,111,3.6,3.6,98,0.00,,,0.00,VWS V14.01,2013-03-08 06:37:00,
2013-03-08 06:42:00,50.5,50.0,29.32,ENE,64,4.0,4.0,98,0.00,,,0.00,VWS V14.01,2013-03-08 06:42:00,
2013-03-08 06:47:00,50.5,50.0,29.32,ENE,70,2.7,4.9,98,0.00,,,0.00,VWS V14.01,2013-03-08 06:47:00,
2013-03-08 06:52:00,50.5,50.0,29.32,SE,127,3.1,4.0,98,0.00,,,0.00,VWS V14.01,2013-03-08 06:52:00,
2013-03-08 06:57:00,50.5,50.0,29.32,ENE,78,3.1,4.0,98,0.00,,,0.00,VWS V14.01,2013-03-08 06:57:00,
2013-03-08 07:02:00,50.5,50.0,29.32,ENE,71,3.1,3.6,98,0.00,,,0.00,VWS V14.01,2013-03-08 07:02:00,
2013-03-08 07:08:00,50.5,50.0,29.32,East,89,3.1,3.6,98,0.00,,,0.00,VWS V14.01,2013-03-08 07:08:00,
2013-03-08 07:13:00,50.5,50.0,29.32,East,82,3.6,5.4,98,0.00,,,0.00,VWS V14.01,2013-03-08 07:13:00,
2013-03-08 07:18:00,50.5,50.0,29.32,ENE,64,5.4,5.4,98,0.00,,,0.00,VWS V14.01,2013-03-08 07:18:00,
2013-03-08 07:23:00,50.5,50.0,29.32,East,97,3.6,4.0,98,0.00,,,0.00,VWS V14.01,2013-03-08 07:23:00,
2013-03-08 07:28:00,50.5,50.0,29.32,ESE,106,3.1,4.9,98,0.00,,,0.00,VWS V14.01,2013-03-08 07:28:00,
2013-03-08 07:33:00,50.5,50.0,29.32,ESE,119,4.0,4.0,98,0.00,,,0.00,VWS V14.01,2013-03-08 07:33:00,
2013-03-08 07:38:00,50.5,50.0,29.32,East,80,4.0,6.3,98,0.00,,,0.00,VWS V14.01,2013-03-08 07:38:00,
2013-03-08 07:43:00,50.5,50.0,29.35,ESE,121,4.9,5.8,98,0.00,,,0.00,VWS V14.01,2013-03-08 07:43:00,
2013-03-08 07:48:00,50.5,50.0,29.35,East,95,4.0,6.3,98,0.00,,,0.00,VWS V14.01,2013-03-08 07:48:00,
2013-03-08 07:53:00,50.5,50.0,29.35,ESE,111,5.4,5.8,98,0.00,,,0.00,VWS V14.01,2013-03-08 07:53:00,
2013-03-08 07:58:00,50.5,50.0,29.35,ESE,122,5.8,5.8,98,0.00,,,0.00,VWS V14.01,2013-03-08 07:58:00,
2013-03-08 08:03:00,50.5,50.0,29.35,East,88,5.8,6.3,98,0.00,,,0.00,VWS V14.01,2013-03-08 08:03:00,
2013-03-08 08:08:00,50.5,50.0,29.35,ESE,119,3.6,4.9,98,0.00,,,0.00,VWS V14.01,2013-03-08 08:08:00,
2013-03-08 08:13:00,50.5,50.0,29.35,East,95,4.9,5.8,98,0.00,,,0.00,VWS V14.01,2013-03-08 08:13:00,
2013-03-08 08:18:00,50.5,50.0,29.35,ESE,120,3.6,4.9,98,0.00,,,0.00,VWS V14.01,2013-03-08 08:18:00,
2013-03-08 08:23:00,50.5,50.0,29.35,NNE,31,3.6,4.0,98,0.00,,,0.00,VWS V14.01,2013-03-08 08:23:00,
2013-03-08 08:28:00,50.5,50.0,29.35,East,88,3.6,5.8,98,0.00,,,0.00,VWS V14.01,2013-03-08 08:28:00,
2013-03-08 08:33:00,50.5,50.0,29.35,East,88,3.6,4.0,98,0.00,,,0.00,VWS V14.01,2013-03-08 08:33:00,
2013-03-08 08:38:00,50.5,50.0,29.35,ENE,72,4.0,4.9,98,0.00,,,0.00,VWS V14.01,2013-03-08 08:38:00,
2013-03-08 08:43:00,50.5,50.0,29.35,East,79,5.4,5.4,98,0.00,,,0.00,VWS V14.01,2013-03-08 08:43:00,
2013-03-08 08:48:00,50.5,50.0,29.35,ENE,70,5.4,5.4,98,0.00,,,0.00,VWS V14.01,2013-03-08 08:48:00,
2013-03-08 08:53:00,50.5,50.0,29.35,East,84,4.0,6.3,98,0.00,,,0.00,VWS V14.01,2013-03-08 08:53:00,
2013-03-08 08:59:00,50.5,50.0,29.35,East,86,6.3,6.3,98,0.00,,,0.00,VWS V14.01,2013-03-08 08:59:00,
2013-03-08 09:04:00,50.5,50.0,29.35,East,89,6.3,6.7,98,0.00,,,0.00,VWS V14.01,2013-03-08 09:04:00,
2013-03-08 09:09:00,50.5,50.0,29.35,East,81,5.4,7.6,98,0.00,,,0.00,VWS V14.01,2013-03-08 09:09:00,
2013-03-08 09:14:00,50.5,50.0,29.35,East,96,6.3,6.3,98,0.00,,,0.00,VWS V14.01,2013-03-08 09:14:00,
2013-03-08 09:19:00,50.5,50.0,29.35,ESE,123,7.6,7.6,98,0.00,,,0.00,VWS V14.01,2013-03-08 09:19:00,
2013-03-08 09:24:00,50.5,50.0,29.35,ESE,117,6.3,6.3,98,0.00,,,0.00,VWS V14.01,2013-03-08 09:24:00,
2013-03-08 09:29:00,50.5,50.0,29.35,East,84,4.9,5.8,98,0.00,,,0.00,VWS V14.01,2013-03-08 09:29:00,
2013-03-08 09:34:00,50.5,50.0,29.35,East,90,3.6,4.0,98,0.00,,,0.00,VWS V14.01,2013-03-08 09:34:00,
2013-03-08 09:39:00,50.5,50.0,29.35,East,79,3.1,4.9,98,0.00,,,0.00,VWS V14.01,2013-03-08 09:39:00,
2013-03-08 09:44:00,50.5,50.0,29.35,East,89,2.7,4.9,98,0.00,,,0.00,VWS V14.01,2013-03-08 09:44:00,
2013-03-08 09:49:00,50.5,50.0,29.35,ENE,71,5.4,5.8,98,0.00,,,0.00,VWS V14.01,2013-03-08 09:49:00,
2013-03-08 09:54:00,50.5,50.0,29.35,East,81,4.0,4.0,98,0.04,,,0.04,VWS V14.01,2013-03-08 09:54:00,
2013-03-08 09:59:00,50.5,50.0,29.35,East,89,5.8,6.3,98,0.04,,,0.04,VWS V14.01,2013-03-08 09:59:00,
2013-03-08 10:04:00,50.5,50.0,29.35,NE,43,5.4,5.8,98,0.04,,,0.04,VWS V14.01,2013-03-08 10:04:00,
2013-03-08 10:09:00,50.5,50.0,29.35,ENE,61,3.6,4.0,98,0.04,,,0.04,VWS V14.01,2013-03-08 10:09:00,
2013-03-08 10:14:00,50.5,50.0,29.35,East,88,2.2,4.0,98,0.04,,,0.04,VWS V14.01,2013-03-08 10:14:00,
2013-03-08 10:19:00,50.5,50.0,29.35,ENE,64,2.7,4.0,98,0.04,,,0.04,VWS V14.01,2013-03-08 10:19:00,
2013-03-08 10:24:00,50.5,50.0,29.35,East,92,3.1,3.1,98,0.04,,,0.04,VWS V14.01,2013-03-08 10:24:00,
2013-03-08 10:29:00,50.5,50.0,29.38,East,90,4.0,4.5,98,0.04,,,0.04,VWS V14.01,2013-03-08 10:29:00,
2013-03-08 10:34:00,50.5,50.0,29.38,East,79,3.1,3.6,98,0.04,,,0.04,VWS V14.01,2013-03-08 10:34:00,
2013-03-08 10:39:00,50.5,50.0,29.38,East,91,6.3,6.3,98,0.04,,,0.04,VWS V14.01,2013-03-08 10:39:00,
2013-03-08 10:44:00,50.5,50.0,29.38,East,93,4.0,4.0,98,0.04,,,0.04,VWS V14.01,2013-03-08 10:44:00,
2013-03-08 10:49:00,50.5,50.0,29.38,East,98,3.6,3.6,98,0.04,,,0.04,VWS V14.01,2013-03-08 10:49:00,
2013-03-08 10:54:00,50.5,50.0,29.38,East,90,3.1,4.9,98,0.00,,,0.04,VWS V14.01,2013-03-08 10:54:00,
2013-03-08 10:59:00,50.5,50.0,29.38,ENE,73,7.2,7.2,98,0.00,,,0.04,VWS V14.01,2013-03-08 10:59:00,
2013-03-08 11:04:00,50.5,50.0,29.38,ESE,119,4.0,4.9,98,0.00,,BKN007,0.04,VWS V14.01,2013-03-08 11:04:00,
2013-03-08 11:09:00,50.5,50.0,29.38,East,100,4.0,4.9,98,0.00,,BKN007,0.04,VWS V14.01,2013-03-08 11:09:00,
2013-03-08 11:14:00,50.5,50.0,29.38,ENE,74,6.7,6.7,98,0.00,,BKN007,0.04,VWS V14.01,2013-03-08 11:14:00,
2013-03-08 11:19:00,50.5,50.0,29.38,NE,56,3.6,5.4,98,0.00,,BKN007,0.04,VWS V14.01,2013-03-08 11:19:00,
2013-03-08 11:24:00,50.5,50.0,29.38,East,79,3.6,5.4,98,0.00,,BKN007,0.04,VWS V14.01,2013-03-08 11:24:00,
2013-03-08 11:29:00,50.5,50.0,29.38,East,84,3.6,5.8,98,0.04,,BKN007,0.08,VWS V14.01,2013-03-08 11:29:00,
2013-03-08 11:35:00,50.5,50.0,29.38,East,86,2.7,4.9,98,0.04,,BKN007,0.08,VWS V14.01,2013-03-08 11:35:00,
2013-03-08 11:40:00,50.5,50.0,29.38,ESE,108,5.4,5.4,98,0.04,,BKN007,0.08,VWS V14.01,2013-03-08 11:40:00,
2013-03-08 11:45:00,50.5,50.0,29.38,ENE,69,2.7,3.6,98,0.04,,BKN007,0.08,VWS V14.01,2013-03-08 11:45:00,
2013-03-08 11:50:00,50.5,50.0,29.38,East,83,2.7,4.0,98,0.04,,BKN007,0.08,VWS V14.01,2013-03-08 11:50:00,
2013-03-08 11:55:00,50.5,50.0,29.38,East,81,3.6,4.9,98,0.04,,BKN007,0.08,VWS V14.01,2013-03-08 11:55:00,
2013-03-08 12:00:00,50.5,50.0,29.38,East,96,3.1,3.6,98,0.04,,BKN007,0.08,VWS V14.01,2013-03-08 12:00:00,
2013-03-08 12:05:00,50.5,50.0,29.38,ENE,73,2.2,3.6,98,0.04,,-RA,0.08,VWS V14.01,2013-03-08 12:05:00,
2013-03-08 12:10:00,50.5,50.0,29.38,East,86,0.0,3.6,98,0.04,,-RA,0.08,VWS V14.01,2013-03-08 12:10:00,
2013-03-08 12:15:00,50.5,50.0,29.38,ENE,63,3.1,4.5,98,0.04,,-RA,0.08,VWS V14.01,2013-03-08 12:15:00,
2013-03-08 12:20:00,50.5,50.0,29.38,ENE,69,3.6,3.6,98,0.04,,-RA,0.08,VWS V14.01,2013-03-08 12:20:00,
2013-03-08 12:25:00,50.5,50.0,29.38,East,79,2.2,2.2,98,0.04,,-RA,0.08,VWS V14.01,2013-03-08 12:25:00,
2013-03-08 12:30:00,50.5,50.0,29.38,East,89,3.1,3.1,98,0.00,,-RA,0.08,VWS V14.01,2013-03-08 12:30:00,
2013-03-08 12:35:00,50.5,50.0,29.38,ENE,68,3.1,3.6,98,0.04,,-RA,0.12,VWS V14.01,2013-03-08 12:35:00,
2013-03-08 12:40:00,50.5,50.0,29.38,ENE,75,0.0,0.0,98,0.04,,-RA,0.12,VWS V14.01,2013-03-08 12:40:00,
2013-03-08 12:45:00,50.5,50.0,29.38,ENE,62,2.7,2.7,98,0.04,,-RA,0.12,VWS V14.01,2013-03-08 12:45:00,
2013-03-08 12:50:00,50.5,50.0,29.38,ENE,67,0.0,0.0,98,0.04,,-RA,0.12,VWS V14.01,2013-03-08 12:50:00,
2013-03-08 12:55:00,50.5,50.0,29.38,East,88,3.1,3.1,98,0.04,,-RA,0.12,VWS V14.01,2013-03-08 12:55:00,
2013-03-08 13:00:00,50.5,50.0,29.38,ESE,106,3.1,3.1,98,0.04,,-RA,0.12,VWS V14.01,2013-03-08 13:00:00,
2013-03-08 13:05:00,50.5,50.0,29.38,East,90,0.0,0.0,98,0.04,,-RA,0.12,VWS V14.01,2013-03-08 13:05:00,
2013-03-08 13:11:00,50.5,50.0,29.38,NE,55,0.0,0.0,98,0.08,,-RA,0.16,VWS V14.01,2013-03-08 13:11:00,
2013-03-08 13:16:00,50.5,50.0,29.38,North,353,0.0,0.0,98,0.08,,-RA,0.16,VWS V14.01,2013-03-08 13:16:00,
2013-03-08 13:21:00,50.5,50.0,29.38,North,353,0.0,0.0,98,0.08,,-RA,0.16,VWS V14.01,2013-03-08 13:21:00,
2013-03-08 13:26:00,50.5,50.0,29.38,North,353,0.0,0.0,98,0.08,,-RA,0.16,VWS V14.01,2013-03-08 13:26:00,
2013-03-08 13:31:00,50.5,50.0,29.38,North,353,0.0,0.0,98,0.08,,-RA,0.16,VWS V14.01,2013-03-08 13:31:00,
2013-03-08 13:36:00,50.5,50.0,29.38,North,353,0.0,0.0,98,0.04,,-RA,0.16,VWS V14.01,2013-03-08 13:36:00,
2013-03-08 13:41:00,50.5,50.0,29.38,North,353,0.0,0.0,98,0.04,,-RA,0.16,VWS V14.01,2013-03-08 13:41:00,
2013-03-08 13:46:00,50.5,50.0,29.38,North,353,0.0,0.0,98,0.04,,-RA,0.16,VWS V14.01,2013-03-08 13:46:00,
2013-03-08 13:51:00,50.5,50.0,29.38,North,353,2.7,2.7,98,0.04,,-RA,0.16,VWS V14.01,2013-03-08 13:51:00,
2013-03-08 13:56:00,50.5,50.0,29.38,North,353,0.0,0.0,98,0.04,,-RA,0.16,VWS V14.01,2013-03-08 13:56:00,
2013-03-08 14:01:00,50.5,50.0,29.38,North,353,0.0,0.0,98,0.08,,-RA,0.20,VWS V14.01,2013-03-08 14:01:00,
2013-03-08 14:06:00,50.5,50.0,29.38,North,353,0.0,0.0,98,0.04,,-RA,0.20,VWS V14.01,2013-03-08 14:06:00,
2013-03-08 14:12:00,50.5,50.0,29.41,North,353,2.2,2.7,98,0.04,,-RA,0.20,VWS V14.01,2013-03-08 14:12:00,
2013-03-08 14:17:00,50.5,50.0,29.41,North,353,0.0,0.0,98,0.04,,-RA,0.20,VWS V14.01,2013-03-08 14:17:00,
2013-03-08 14:22:00,50.5,50.0,29.41,North,353,0.0,0.0,98,0.04,,-RA,0.20,VWS V14.01,2013-03-08 14:22:00,
2013-03-08 14:27:00,50.5,50.0,29.41,North,353,0.0,0.0,98,0.04,,-RA,0.20,VWS V14.01,2013-03-08 14:27:00,
2013-03-08 14:32:00,50.5,50.0,29.41,North,353,0.0,0.0,98,0.04,,-RA,0.20,VWS V14.01,2013-03-08 14:32:00,
2013-03-08 14:37:00,50.5,50.0,29.41,North,353,0.0,0.0,98,0.04,,-RA,0.20,VWS V14.01,2013-03-08 14:37:00,
2013-03-08 14:42:00,50.5,50.0,29.41,North,353,0.0,0.0,98,0.04,,-RA,0.20,VWS V14.01,2013-03-08 14:42:00,
2013-03-08 14:47:00,50.5,50.0,29.41,North,353,0.0,0.0,98,0.08,,-RA,0.24,VWS V14.01,2013-03-08 14:47:00,
2013-03-08 14:52:00,50.5,50.0,29.41,North,353,0.0,0.0,98,0.08,,-RA,0.24,VWS V14.01,2013-03-08 14:52:00,
2013-03-08 14:57:00,50.5,50.0,29.41,North,353,0.0,0.0,98,0.08,,-RA,0.24,VWS V14.01,2013-03-08 14:57:00,
2013-03-08 15:02:00,50.5,50.0,29.41,North,353,0.0,0.0,98,0.04,,-RA,0.24,VWS V14.01,2013-03-08 15:02:00,
2013-03-08 15:07:00,51.6,51.1,29.41,North,353,0.0,0.0,98,0.04,,-RA,0.24,VWS V14.01,2013-03-08 15:07:00,
2013-03-08 15:12:00,51.6,51.1,29.41,North,353,0.0,0.0,98,0.04,,-RA,0.24,VWS V14.01,2013-03-08 15:12:00,
2013-03-08 15:17:00,51.6,51.1,29.41,North,353,0.0,0.0,98,0.04,,-RA,0.24,VWS V14.01,2013-03-08 15:17:00,
2013-03-08 15:22:00,51.6,51.1,29.41,North,353,0.0,0.0,98,0.04,,-RA,0.24,VWS V14.01,2013-03-08 15:22:00,
2013-03-08 15:27:00,51.6,51.1,29.41,North,353,0.0,0.0,98,0.04,,-RA,0.24,VWS V14.01,2013-03-08 15:27:00,
2013-03-08 15:33:00,51.6,51.1,29.41,North,353,0.0,0.0,98,0.04,,-RA,0.24,VWS V14.01,2013-03-08 15:33:00,
2013-03-08 15:38:00,51.6,51.1,29.41,North,353,0.0,0.0,98,0.04,,-RA,0.24,VWS V14.01,2013-03-08 15:38:00,
2013-03-08 15:43:00,51.6,51.1,29.41,North,353,0.0,0.0,98,0.04,,-RA,0.24,VWS V14.01,2013-03-08 15:43:00,
2013-03-08 15:48:00,51.6,51.1,29.41,North,353,0.0,0.0,98,0.00,,-RA,0.24,VWS V14.01,2013-03-08 15:48:00,
2013-03-08 15:53:00,51.6,51.1,29.41,North,353,0.0,0.0,98,0.00,,-RA,0.24,VWS V14.01,2013-03-08 15:53:00,
2013-03-08 15:58:00,51.6,51.1,29.41,North,353,0.0,0.0,98,0.00,,-RA,0.24,VWS V14.01,2013-03-08 15:58:00,
2013-03-08 16:03:00,51.6,51.1,29.41,North,353,0.0,0.0,98,0.00,,-RA,0.24,VWS V14.01,2013-03-08 16:03:00,
2013-03-08 16:08:00,51.6,51.1,29.41,North,353,3.1,3.6,98,0.00,,-RA,0.24,VWS V14.01,2013-03-08 16:08:00,
2013-03-08 16:13:00,51.6,51.1,29.41,North,353,0.0,0.0,98,0.00,,-RA,0.24,VWS V14.01,2013-03-08 16:13:00,
2013-03-08 16:18:00,51.6,51.1,29.41,North,353,0.0,0.0,98,0.00,,-RA,0.24,VWS V14.01,2013-03-08 16:18:00,
2013-03-08 16:23:00,51.6,51.1,29.41,North,353,0.0,2.2,98,0.00,,-RA,0.24,VWS V14.01,2013-03-08 16:23:00,
2013-03-08 16:29:00,51.6,51.1,29.41,North,353,0.0,0.0,98,0.00,,-RA,0.24,VWS V14.01,2013-03-08 16:29:00,
2013-03-08 16:34:00,51.6,51.1,29.41,North,353,0.0,0.0,98,0.00,,-RA,0.24,VWS V14.01,2013-03-08 16:34:00,
2013-03-08 16:39:00,51.6,51.1,29.41,North,353,0.0,0.0,98,0.00,,-RA,0.24,VWS V14.01,2013-03-08 16:39:00,
2013-03-08 16:44:00,51.6,51.1,29.41,North,353,0.0,2.7,98,0.00,,-RA,0.24,VWS V14.01,2013-03-08 16:44:00,
2013-03-08 16:49:00,51.6,51.1,29.41,North,353,0.0,0.0,98,0.00,,-RA,0.24,VWS V14.01,2013-03-08 16:49:00,
2013-03-08 16:54:00,51.6,51.1,29.41,North,353,0.0,0.0,98,0.00,,-RA,0.24,VWS V14.01,2013-03-08 16:54:00,
2013-03-08 16:59:00,51.6,51.1,29.41,North,353,0.0,0.0,98,0.00,,-RA,0.24,VWS V14.01,2013-03-08 16:59:00,
2013-03-08 17:04:00,51.6,51.1,29.41,North,353,0.0,0.0,98,0.00,,BKN008,0.24,VWS V14.01,2013-03-08 17:04:00,
2013-03-08 17:09:00,51.6,51.1,29.41,North,353,0.0,0.0,98,0.04,,BKN008,0.28,VWS V14.01,2013-03-08 17:09:00,
2013-03-08 17:14:00,51.6,51.1,29.41,North,353,3.6,3.6,98,0.04,,BKN008,0.28,VWS V14.01,2013-03-08 17:14:00,
2013-03-08 17:19:00,51.6,51.1,29.41,North,353,2.2,2.2,98,0.04,,BKN008,0.28,VWS V14.01,2013-03-08 17:19:00,
2013-03-08 17:24:00,51.6,51.1,29.41,North,353,0.0,0.0,98,0.04,,BKN008,0.28,VWS V14.01,2013-03-08 17:24:00,
2013-03-08 17:29:00,51.6,51.1,29.44,North,353,0.0,0.0,98,0.04,,BKN008,0.28,VWS V14.01,2013-03-08 17:29:00,
2013-03-08 17:34:00,51.6,51.1,29.44,North,353,0.0,0.0,98,0.04,,BKN008,0.28,VWS V14.01,2013-03-08 17:34:00,
2013-03-08 17:39:00,51.6,51.1,29.44,North,353,0.0,0.0,98,0.04,,BKN008,0.28,VWS V14.01,2013-03-08 17:39:00,
2013-03-08 17:45:00,51.6,51.1,29.44,North,353,0.0,0.0,98,0.04,,BKN008,0.28,VWS V14.01,2013-03-08 17:45:00,
2013-03-08 17:50:00,51.6,51.1,29.44,North,353,0.0,0.0,98,0.04,,BKN008,0.28,VWS V14.01,2013-03-08 17:50:00,
2013-03-08 17:55:00,51.6,51.1,29.44,North,353,0.0,0.0,98,0.04,,BKN008,0.28,VWS V14.01,2013-03-08 17:55:00,
2013-03-08 18:00:00,51.6,51.1,29.44,North,353,0.0,0.0,98,0.04,,-RA,0.28,VWS V14.01,2013-03-08 18:00:00,
2013-03-08 18:05:00,51.6,51.1,29.44,North,353,0.0,0.0,98,0.04,,-RA,0.28,VWS V14.01,2013-03-08 18:05:00,
2013-03-08 18:10:00,51.3,50.7,29.44,North,353,0.0,0.0,98,0.00,,-RA,0.28,VWS V14.01,2013-03-08 18:10:00,
2013-03-08 18:15:00,51.3,50.7,29.44,North,353,0.0,0.0,98,0.00,,-RA,0.28,VWS V14.01,2013-03-08 18:15:00,
2013-03-08 18:20:00,51.3,50.7,29.44,NNE,22,0.0,0.0,98,0.00,,-RA,0.28,VWS V14.01,2013-03-08 18:20:00,
2013-03-08 18:25:00,51.3,50.7,29.44,North,353,0.0,0.0,98,0.00,,-RA,0.28,VWS V14.01,2013-03-08 18:25:00,
2013-03-08 18:30:00,51.1,50.5,29.44,North,353,0.0,0.0,98,0.00,,-RA,0.28,VWS V14.01,2013-03-08 18:30:00,
2013-03-08 18:35:00,51.1,50.5,29.44,NNE,22,0.0,0.0,98,0.00,,-RA,0.28,VWS V14.01,2013-03-08 18:35:00,
2013-03-08 18:40:00,51.1,50.5,29.44,North,353,0.0,0.0,98,0.00,,-RA,0.28,VWS V14.01,2013-03-08 18:40:00,
2013-03-08 18:45:00,51.1,50.5,29.44,North,353,0.0,0.0,98,0.00,,-RA,0.28,VWS V14.01,2013-03-08 18:45:00,
2013-03-08 18:50:00,51.1,50.5,29.44,North,353,0.0,0.0,98,0.00,,-RA,0.28,VWS V14.01,2013-03-08 18:50:00,
2013-03-08 18:55:00,51.1,50.5,29.44,North,353,0.0,0.0,98,0.00,,-RA,0.28,VWS V14.01,2013-03-08 18:55:00,
2013-03-08 19:01:00,51.1,50.5,29.44,North,353,0.0,0.0,98,0.00,,-RA,0.28,VWS V14.01,2013-03-08 19:01:00,
2013-03-08 19:06:00,51.1,50.5,29.44,North,353,2.7,3.1,98,0.00,,-RA,0.28,VWS V14.01,2013-03-08 19:06:00,
2013-03-08 19:11:00,51.1,50.5,29.44,North,353,2.7,2.7,98,0.00,,-RA,0.28,VWS V14.01,2013-03-08 19:11:00,
2013-03-08 19:16:00,51.1,50.5,29.44,North,353,0.0,0.0,98,0.00,,-RA,0.28,VWS V14.01,2013-03-08 19:16:00,
2013-03-08 19:21:00,51.1,50.5,29.44,North,353,0.0,0.0,98,0.00,,-RA,0.28,VWS V14.01,2013-03-08 19:21:00,
2013-03-08 19:26:00,51.1,50.5,29.44,North,353,0.0,0.0,98,0.00,,-RA,0.28,VWS V14.01,2013-03-08 19:26:00,
2013-03-08 19:31:00,51.1,50.5,29.44,NNE,22,0.0,0.0,98,0.00,,-RA,0.28,VWS V14.01,2013-03-08 19:31:00,
2013-03-08 19:36:00,51.1,50.5,29.44,North,353,0.0,0.0,98,0.00,,-RA,0.28,VWS V14.01,2013-03-08 19:36:00,
2013-03-08 19:41:00,51.1,50.5,29.44,North,353,0.0,2.7,98,0.00,,-RA,0.28,VWS V14.01,2013-03-08 19:41:00,
2013-03-08 19:46:00,51.1,50.5,29.44,North,353,0.0,0.0,98,0.00,,-RA,0.28,VWS V14.01,2013-03-08 19:46:00,
2013-03-08 19:51:00,51.1,50.5,29.44,NNE,23,0.0,0.0,98,0.00,,-RA,0.28,VWS V14.01,2013-03-08 19:51:00,
2013-03-08 19:56:00,51.1,50.5,29.44,NNE,23,0.0,0.0,98,0.00,,-RA,0.28,VWS V14.01,2013-03-08 19:56:00,
2013-03-08 20:01:00,51.1,50.5,29.44,NNE,22,0.0,0.0,98,0.00,,BKN010,0.28,VWS V14.01,2013-03-08 20:01:00,
2013-03-08 20:06:00,51.1,50.5,29.44,North,353,0.0,0.0,98,0.00,,BKN010,0.28,VWS V14.01,2013-03-08 20:06:00,
2013-03-08 20:11:00,51.1,50.5,29.47,NNE,22,0.0,0.0,98,0.00,,BKN010,0.28,VWS V14.01,2013-03-08 20:11:00,
2013-03-08 20:16:00,51.1,50.5,29.47,North,353,0.0,0.0,98,0.00,,BKN010,0.28,VWS V14.01,2013-03-08 20:16:00,
2013-03-08 20:21:00,51.1,50.5,29.47,NNE,23,0.0,0.0,98,0.00,,BKN010,0.28,VWS V14.01,2013-03-08 20:21:00,
2013-03-08 20:26:00,51.1,50.5,29.44,North,353,0.0,0.0,98,0.00,,BKN010,0.28,VWS V14.01,2013-03-08 20:26:00,
2013-03-08 20:32:00,51.1,50.5,29.44,North,353,0.0,0.0,98,0.00,,BKN010,0.28,VWS V14.01,2013-03-08 20:32:00,
2013-03-08 20:37:00,51.1,50.5,29.44,North,353,0.0,0.0,98,0.04,,BKN010,0.31,VWS V14.01,2013-03-08 20:37:00,
2013-03-08 20:42:00,51.1,50.5,29.44,NNE,23,0.0,0.0,98,0.04,,BKN010,0.31,VWS V14.01,2013-03-08 20:42:00,
2013-03-08 20:47:00,51.1,50.5,29.44,North,353,0.0,0.0,98,0.04,,BKN010,0.31,VWS V14.01,2013-03-08 20:47:00,
2013-03-08 20:52:00,51.1,50.5,29.44,North,353,0.0,0.0,98,0.04,,BKN010,0.31,VWS V14.01,2013-03-08 20:52:00,
2013-03-08 20:57:00,51.1,50.5,29.47,North,353,0.0,0.0,98,0.04,,BKN010,0.31,VWS V14.01,2013-03-08 20:57:00,
2013-03-08 21:02:00,51.1,50.5,29.47,NNE,22,0.0,0.0,98,0.04,,BKN008,0.31,VWS V14.01,2013-03-08 21:02:00,
2013-03-08 21:07:00,51.1,50.5,29.47,North,353,0.0,0.0,98,0.04,,BKN008,0.31,VWS V14.01,2013-03-08 21:07:00,
2013-03-08 21:12:00,51.1,50.5,29.47,NNE,23,0.0,0.0,98,0.04,,BKN008,0.31,VWS V14.01,2013-03-08 21:12:00,
2013-03-08 21:17:00,51.1,50.5,29.47,NNE,22,4.0,4.0,98,0.04,,BKN008,0.31,VWS V14.01,2013-03-08 21:17:00,
2013-03-08 21:22:00,51.1,50.5,29.47,NNE,23,2.2,3.1,98,0.04,,BKN008,0.31,VWS V14.01,2013-03-08 21:22:00,
2013-03-08 21:27:00,51.1,50.5,29.47,NNE,19,3.1,5.8,98,0.04,,BKN008,0.31,VWS V14.01,2013-03-08 21:27:00,
2013-03-08 21:32:00,51.1,50.5,29.47,NNE,33,0.0,0.0,98,0.04,,BKN008,0.31,VWS V14.01,2013-03-08 21:32:00,
2013-03-08 21:37:00,51.1,50.5,29.47,NNE,18,0.0,0.0,98,0.00,,BKN008,0.31,VWS V14.01,2013-03-08 21:37:00,
2013-03-08 21:42:00,51.1,50.5,29.47,North,6,0.0,0.0,98,0.00,,BKN008,0.31,VWS V14.01,2013-03-08 21:42:00,
2013-03-08 21:47:00,51.1,50.5,29.47,North,6,0.0,0.0,98,0.00,,BKN008,0.31,VWS V14.01,2013-03-08 21:47:00,
2013-03-08 21:52:00,51.1,50.5,29.47,North,6,0.0,0.0,98,0.00,,BKN008,0.31,VWS V14.01,2013-03-08 21:52:00,
2013-03-08 21:57:00,51.1,50.5,29.47,NNE,15,0.0,0.0,98,0.00,,BKN008,0.31,VWS V14.01,2013-03-08 21:57:00,
2013-03-08 22:02:00,51.1,50.5,29.47,NNE,15,0.0,0.0,98,0.00,,BKN006,0.31,VWS V14.01,2013-03-08 22:02:00,
2013-03-08 22:07:00,51.1,50.5,29.47,North,10,0.0,2.2,98,0.00,,BKN006,0.31,VWS V14.01,2013-03-08 22:07:00,
2013-03-08 22:13:00,51.1,50.5,29.47,NNE,25,3.1,4.0,98,0.00,,BKN006,0.31,VWS V14.01,2013-03-08 22:13:00,
2013-03-08 22:18:00,51.1,50.5,29.47,North,9,0.0,0.0,98,0.00,,BKN006,0.31,VWS V14.01,2013-03-08 22:18:00,
2013-03-08 22:23:00,51.1,50.5,29.47,NNE,12,3.6,3.6,98,0.00,,BKN006,0.31,VWS V14.01,2013-03-08 22:23:00,
2013-03-08 22:28:00,51.1,50.5,29.47,North,353,0.0,0.0,98,0.00,,BKN006,0.31,VWS V14.01,2013-03-08 22:28:00,
2013-03-08 22:33:00,51.1,50.5,29.47,North,353,0.0,0.0,98,0.00,,BKN006,0.31,VWS V14.01,2013-03-08 22:33:00,
2013-03-08 22:38:00,51.1,50.5,29.47,North,353,3.1,3.6,98,0.00,,BKN006,0.31,VWS V14.01,2013-03-08 22:38:00,
2013-03-08 22:43:00,51.1,50.5,29.47,North,350,4.0,4.0,98,0.00,,BKN006,0.31,VWS V14.01,2013-03-08 22:43:00,
2013-03-08 22:48:00,51.1,50.5,29.47,NNW,346,0.0,2.7,98,0.00,,BKN006,0.31,VWS V14.01,2013-03-08 22:48:00,
2013-03-08 22:53:00,51.1,50.5,29.47,NNW,346,0.0,0.0,98,0.00,,BKN006,0.31,VWS V14.01,2013-03-08 22:53:00,
2013-03-08 22:58:00,51.1,50.5,29.47,North,353,0.0,0.0,98,0.00,,BKN006,0.31,VWS V14.01,2013-03-08 22:58:00,
2013-03-08 23:03:00,51.1,50.5,29.47,North,353,0.0,0.0,98,0.00,,-RA,0.31,VWS V14.01,2013-03-08 23:03:00,
2013-03-08 23:08:00,51.1,50.5,29.47,North,353,0.0,0.0,98,0.00,,-RA,0.31,VWS V14.01,2013-03-08 23:08:00,
2013-03-08 23:13:00,51.1,50.5,29.47,North,349,0.0,0.0,98,0.00,,-RA,0.31,VWS V14.01,2013-03-08 23:13:00,
2013-03-08 23:18:00,51.1,50.5,29.47,North,349,0.0,0.0,98,0.00,,-RA,0.31,VWS V14.01,2013-03-08 23:18:00,
2013-03-08 23:23:00,51.1,50.5,29.47,North,349,0.0,0.0,98,0.00,,-RA,0.31,VWS V14.01,2013-03-08 23:23:00,
2013-03-08 23:28:00,51.1,50.5,29.47,North,349,0.0,0.0,98,0.00,,-RA,0.31,VWS V14.01,2013-03-08 23:28:00,
2013-03-08 23:33:00,51.1,50.5,29.47,North,349,0.0,0.0,98,0.00,,-RA,0.31,VWS V14.01,2013-03-08 23:33:00,
2013-03-08 23:38:00,51.1,50.5,29.47,North,349,0.0,0.0,98,0.00,,-RA,0.31,VWS V14.01,2013-03-08 23:38:00,
2013-03-08 23:43:00,51.1,50.5,29.47,North,349,4.0,4.0,98,0.00,,-RA,0.31,VWS V14.01,2013-03-08 23:43:00,
2013-03-08 23:48:00,51.1,50.5,29.47,North,350,0.0,2.7,98,0.00,,-RA,0.31,VWS V14.01,2013-03-08 23:48:00,
2013-03-08 23:53:00,51.1,50.5,29.47,North,350,0.0,0.0,98,0.00,,-RA,0.31,VWS V14.01,2013-03-08 23:53:00,
2013-03-08 23:58:00,51.1,50.5,29.47,North,350,0.0,0.0,98,0.00,,-RA,0.31,VWS V14.01,2013-03-08 23:58:00,